sensor_id;sensor_type;location;lat;lon;timestamp;pressure;altitude;pressure_sealevel;temperature;humidity
20350;BME280;10332;50.208;18.988;2023-08-06T00:01:23;96747.66;;;22.09;100.00
20350;BME280;10332;50.208;18.988;2023-08-06T00:03:52;96750.53;;;22.01;100.00
20350;BME280;10332;50.208;18.988;2023-08-06T00:06:20;96762.63;;;21.97;100.00
20350;BME280;10332;50.208;18.988;2023-08-06T00:08:47;96740.75;;;21.95;100.00
20350;BME280;10332;50.208;18.988;2023-08-06T00:11:15;96728.69;;;21.92;100.00
20350;BME280;10332;50.208;18.988;2023-08-06T00:13:42;96716.84;;;21.88;100.00
20350;BME280;10332;50.208;18.988;2023-08-06T00:16:12;96702.16;;;21.86;100.00
20350;BME280;10332;50.208;18.988;2023-08-06T00:18:40;96678.25;;;21.79;100.00
20350;BME280;10332;50.208;18.988;2023-08-06T00:21:08;96654.13;;;21.80;100.00
20350;BME280;10332;50.208;18.988;2023-08-06T00:23:35;96653.09;;;21.81;100.00
20350;BME280;10332;50.208;18.988;2023-08-06T00:26:03;96638.41;;;21.79;100.00
20350;BME280;10332;50.208;18.988;2023-08-06T00:28:30;96624.72;;;21.75;100.00
20350;BME280;10332;50.208;18.988;2023-08-06T00:30:58;96600.19;;;21.73;100.00
20350;BME280;10332;50.208;18.988;2023-08-06T00:33:25;96575.06;;;21.76;100.00
20350;BME280;10332;50.208;18.988;2023-08-06T00:35:53;96541.94;;;21.78;100.00
20350;BME280;10332;50.208;18.988;2023-08-06T00:38:20;96520.47;;;21.80;100.00
20350;BME280;10332;50.208;18.988;2023-08-06T00:40:47;96531.47;;;21.83;100.00
20350;BME280;10332;50.208;18.988;2023-08-06T00:43:15;96558.66;;;21.86;100.00
20350;BME280;10332;50.208;18.988;2023-08-06T00:45:43;96609.34;;;21.84;100.00
20350;BME280;10332;50.208;18.988;2023-08-06T00:48:11;96639.22;;;21.79;100.00
20350;BME280;10332;50.208;18.988;2023-08-06T00:50:39;96591.59;;;21.78;100.00
20350;BME280;10332;50.208;18.988;2023-08-06T00:53:07;96553.19;;;21.74;100.00
20350;BME280;10332;50.208;18.988;2023-08-06T00:55:35;96581.81;;;21.72;100.00
20350;BME280;10332;50.208;18.988;2023-08-06T00:58:04;96550.75;;;21.72;100.00
20350;BME280;10332;50.208;18.988;2023-08-06T01:00:32;96530.72;;;21.76;100.00
20350;BME280;10332;50.208;18.988;2023-08-06T01:03:00;96532.13;;;21.79;100.00
20350;BME280;10332;50.208;18.988;2023-08-06T01:05:28;96535.59;;;21.79;100.00
20350;BME280;10332;50.208;18.988;2023-08-06T01:13:44;96568.72;;;21.77;100.00
20350;BME280;10332;50.208;18.988;2023-08-06T01:16:20;96554.63;;;21.76;100.00
20350;BME280;10332;50.208;18.988;2023-08-06T01:18:48;96558.91;;;21.77;100.00
20350;BME280;10332;50.208;18.988;2023-08-06T01:21:19;96555.44;;;21.77;100.00
20350;BME280;10332;50.208;18.988;2023-08-06T01:23:48;96560.75;;;21.77;100.00
20350;BME280;10332;50.208;18.988;2023-08-06T01:26:33;96550.53;;;21.74;100.00
20350;BME280;10332;50.208;18.988;2023-08-06T01:29:25;96520.94;;;21.70;100.00
20350;BME280;10332;50.208;18.988;2023-08-06T01:31:55;96509.88;;;21.73;100.00
20350;BME280;10332;50.208;18.988;2023-08-06T01:34:28;96493.94;;;21.73;100.00
20350;BME280;10332;50.208;18.988;2023-08-06T01:36:57;96489.06;;;21.70;100.00
20350;BME280;10332;50.208;18.988;2023-08-06T01:39:27;96486.41;;;21.70;100.00
20350;BME280;10332;50.208;18.988;2023-08-06T01:41:54;96469.84;;;21.68;100.00
20350;BME280;10332;50.208;18.988;2023-08-06T01:44:22;96466.59;;;21.66;100.00
20350;BME280;10332;50.208;18.988;2023-08-06T01:46:49;96474.59;;;21.66;100.00
20350;BME280;10332;50.208;18.988;2023-08-06T01:49:17;96471.13;;;21.66;100.00
20350;BME280;10332;50.208;18.988;2023-08-06T01:51:44;96478.88;;;21.67;100.00
20350;BME280;10332;50.208;18.988;2023-08-06T01:54:12;96484.97;;;21.68;100.00
20350;BME280;10332;50.208;18.988;2023-08-06T01:56:39;96488.47;;;21.68;100.00
20350;BME280;10332;50.208;18.988;2023-08-06T01:59:06;96497.84;;;21.71;100.00
20350;BME280;10332;50.208;18.988;2023-08-06T02:01:34;96499.69;;;21.70;100.00
20350;BME280;10332;50.208;18.988;2023-08-06T02:04:01;96501.53;;;21.70;100.00
20350;BME280;10332;50.208;18.988;2023-08-06T02:06:29;96506.03;;;21.69;100.00
20350;BME280;10332;50.208;18.988;2023-08-06T02:08:56;96494.81;;;21.67;100.00
20350;BME280;10332;50.208;18.988;2023-08-06T02:11:24;96488.69;;;21.67;100.00
20350;BME280;10332;50.208;18.988;2023-08-06T02:13:51;96482.75;;;21.65;100.00
20350;BME280;10332;50.208;18.988;2023-08-06T02:16:19;96489.50;;;21.67;100.00
20350;BME280;10332;50.208;18.988;2023-08-06T02:18:46;96475.16;;;21.68;100.00
20350;BME280;10332;50.208;18.988;2023-08-06T02:21:14;96477.25;;;21.66;100.00
20350;BME280;10332;50.208;18.988;2023-08-06T02:23:41;96480.50;;;21.68;100.00
20350;BME280;10332;50.208;18.988;2023-08-06T02:26:08;96489.50;;;21.67;100.00
20350;BME280;10332;50.208;18.988;2023-08-06T02:28:36;96491.13;;;21.68;100.00
20350;BME280;10332;50.208;18.988;2023-08-06T02:31:03;96482.91;;;21.70;100.00
20350;BME280;10332;50.208;18.988;2023-08-06T02:33:31;96480.03;;;21.71;100.00
20350;BME280;10332;50.208;18.988;2023-08-06T02:36:03;96473.69;;;21.72;100.00
20350;BME280;10332;50.208;18.988;2023-08-06T02:38:32;96461.00;;;21.74;100.00
20350;BME280;10332;50.208;18.988;2023-08-06T02:41:02;96454.06;;;21.73;100.00
20350;BME280;10332;50.208;18.988;2023-08-06T02:43:31;96460.19;;;21.74;100.00
20350;BME280;10332;50.208;18.988;2023-08-06T02:46:00;96453.88;;;21.75;100.00
20350;BME280;10332;50.208;18.988;2023-08-06T02:48:28;96446.50;;;21.77;100.00
20350;BME280;10332;50.208;18.988;2023-08-06T02:50:59;96449.75;;;21.79;100.00
20350;BME280;10332;50.208;18.988;2023-08-06T02:53:27;96446.88;;;21.80;100.00
20350;BME280;10332;50.208;18.988;2023-08-06T02:55:55;96456.91;;;21.78;100.00
20350;BME280;10332;50.208;18.988;2023-08-06T02:58:23;96464.44;;;21.81;100.00
20350;BME280;10332;50.208;18.988;2023-08-06T03:01:05;96450.38;;;21.74;100.00
20350;BME280;10332;50.208;18.988;2023-08-06T03:03:34;96440.38;;;21.76;100.00
20350;BME280;10332;50.208;18.988;2023-08-06T03:06:02;96435.47;;;21.73;100.00
20350;BME280;10332;50.208;18.988;2023-08-06T03:08:30;96438.75;;;21.75;100.00
20350;BME280;10332;50.208;18.988;2023-08-06T03:10:57;96436.09;;;21.75;100.00
20350;BME280;10332;50.208;18.988;2023-08-06T03:13:25;96440.59;;;21.75;100.00
20350;BME280;10332;50.208;18.988;2023-08-06T03:15:57;96434.44;;;21.74;100.00
20350;BME280;10332;50.208;18.988;2023-08-06T03:18:26;96434.25;;;21.76;100.00
20350;BME280;10332;50.208;18.988;2023-08-06T03:20:54;96428.50;;;21.79;100.00
20350;BME280;10332;50.208;18.988;2023-08-06T03:23:22;96430.50;;;21.83;100.00
20350;BME280;10332;50.208;18.988;2023-08-06T03:25:49;96430.34;;;21.78;100.00
20350;BME280;10332;50.208;18.988;2023-08-06T03:28:16;96426.06;;;21.77;100.00
20350;BME280;10332;50.208;18.988;2023-08-06T03:30:44;96424.44;;;21.76;100.00
20350;BME280;10332;50.208;18.988;2023-08-06T03:33:12;96425.25;;;21.77;100.00
20350;BME280;10332;50.208;18.988;2023-08-06T03:35:39;96421.34;;;21.79;100.00
20350;BME280;10332;50.208;18.988;2023-08-06T03:38:07;96421.56;;;21.78;100.00
20350;BME280;10332;50.208;18.988;2023-08-06T03:40:35;96418.50;;;21.74;100.00
20350;BME280;10332;50.208;18.988;2023-08-06T03:43:03;96416.47;;;21.76;100.00
20350;BME280;10332;50.208;18.988;2023-08-06T03:45:30;96402.75;;;21.79;100.00
20350;BME280;10332;50.208;18.988;2023-08-06T03:47:59;96405.19;;;21.81;100.00
20350;BME280;10332;50.208;18.988;2023-08-06T03:50:26;96405.41;;;21.79;100.00
20350;BME280;10332;50.208;18.988;2023-08-06T03:52:54;96405.03;;;21.76;100.00
20350;BME280;10332;50.208;18.988;2023-08-06T03:55:21;96403.22;;;21.70;100.00
20350;BME280;10332;50.208;18.988;2023-08-06T03:57:49;96405.06;;;21.69;100.00
20350;BME280;10332;50.208;18.988;2023-08-06T04:00:17;96401.59;;;21.69;100.00
20350;BME280;10332;50.208;18.988;2023-08-06T04:02:44;96401.22;;;21.65;100.00
20350;BME280;10332;50.208;18.988;2023-08-06T04:05:12;96397.38;;;21.61;100.00
20350;BME280;10332;50.208;18.988;2023-08-06T04:07:40;96390.13;;;21.43;100.00
20350;BME280;10332;50.208;18.988;2023-08-06T04:10:08;96396.59;;;21.54;100.00
20350;BME280;10332;50.208;18.988;2023-08-06T04:12:35;96394.06;;;21.41;100.00
20350;BME280;10332;50.208;18.988;2023-08-06T04:15:05;96393.28;;;21.34;100.00
20350;BME280;10332;50.208;18.988;2023-08-06T04:17:33;96388.56;;;21.36;100.00
20350;BME280;10332;50.208;18.988;2023-08-06T04:20:01;96382.69;;;21.27;100.00
20350;BME280;10332;50.208;18.988;2023-08-06T04:22:29;96387.81;;;21.22;100.00
20350;BME280;10332;50.208;18.988;2023-08-06T04:24:57;96381.50;;;21.16;100.00
20350;BME280;10332;50.208;18.988;2023-08-06T04:27:25;96385.56;;;21.19;100.00
20350;BME280;10332;50.208;18.988;2023-08-06T04:29:52;96384.34;;;21.21;100.00
20350;BME280;10332;50.208;18.988;2023-08-06T04:32:20;96374.56;;;21.15;100.00
20350;BME280;10332;50.208;18.988;2023-08-06T04:34:48;96368.22;;;21.16;100.00
20350;BME280;10332;50.208;18.988;2023-08-06T04:37:15;96368.22;;;21.16;100.00
20350;BME280;10332;50.208;18.988;2023-08-06T04:39:43;96351.06;;;21.19;100.00
20350;BME280;10332;50.208;18.988;2023-08-06T04:42:10;96356.78;;;21.22;100.00
20350;BME280;10332;50.208;18.988;2023-08-06T04:44:37;96350.84;;;21.27;100.00
20350;BME280;10332;50.208;18.988;2023-08-06T04:47:05;96358.56;;;21.29;100.00
20350;BME280;10332;50.208;18.988;2023-08-06T04:49:33;96355.50;;;21.32;100.00
20350;BME280;10332;50.208;18.988;2023-08-06T04:52:00;96354.47;;;21.33;100.00
20350;BME280;10332;50.208;18.988;2023-08-06T04:54:27;96355.50;;;21.32;100.00
20350;BME280;10332;50.208;18.988;2023-08-06T04:56:55;96359.78;;;21.33;100.00
20350;BME280;10332;50.208;18.988;2023-08-06T04:59:22;96356.09;;;21.34;100.00
20350;BME280;10332;50.208;18.988;2023-08-06T05:01:50;96357.72;;;21.35;100.00
20350;BME280;10332;50.208;18.988;2023-08-06T05:04:18;96356.09;;;21.34;100.00
20350;BME280;10332;50.208;18.988;2023-08-06T05:06:45;96349.16;;;21.33;100.00
20350;BME280;10332;50.208;18.988;2023-08-06T05:09:13;96353.66;;;21.32;100.00
20350;BME280;10332;50.208;18.988;2023-08-06T05:11:40;96340.81;;;21.29;100.00
20350;BME280;10332;50.208;18.988;2023-08-06T05:14:08;96326.31;;;21.25;100.00
20350;BME280;10332;50.208;18.988;2023-08-06T05:16:35;96327.63;;;21.09;100.00
20350;BME280;10332;50.208;18.988;2023-08-06T05:19:03;96327.91;;;21.01;100.00
20350;BME280;10332;50.208;18.988;2023-08-06T05:21:30;96322.22;;;20.97;100.00
20350;BME280;10332;50.208;18.988;2023-08-06T05:23:58;96326.88;;;21.02;100.00
20350;BME280;10332;50.208;18.988;2023-08-06T05:26:25;96328.94;;;21.00;100.00
20350;BME280;10332;50.208;18.988;2023-08-06T05:28:52;96318.34;;;20.93;100.00
20350;BME280;10332;50.208;18.988;2023-08-06T05:31:20;96319.00;;;20.51;100.00
20350;BME280;10332;50.208;18.988;2023-08-06T05:33:47;96325.13;;;20.38;100.00
20350;BME280;10332;50.208;18.988;2023-08-06T05:36:15;96320.66;;;20.32;100.00
20350;BME280;10332;50.208;18.988;2023-08-06T05:38:44;96320.09;;;20.10;100.00
20350;BME280;10332;50.208;18.988;2023-08-06T05:41:12;96330.09;;;20.08;100.00
20350;BME280;10332;50.208;18.988;2023-08-06T05:43:40;96323.63;;;19.97;100.00
20350;BME280;10332;50.208;18.988;2023-08-06T05:46:07;96314.66;;;19.85;100.00
20350;BME280;10332;50.208;18.988;2023-08-06T05:48:34;96306.72;;;19.85;100.00
20350;BME280;10332;50.208;18.988;2023-08-06T05:51:03;96295.94;;;19.80;100.00
20350;BME280;10332;50.208;18.988;2023-08-06T05:53:30;96298.59;;;19.73;100.00
20350;BME280;10332;50.208;18.988;2023-08-06T05:55:58;96292.69;;;19.78;100.00
20350;BME280;10332;50.208;18.988;2023-08-06T05:58:25;96289.63;;;19.81;100.00
20350;BME280;10332;50.208;18.988;2023-08-06T06:00:56;96282.28;;;19.50;100.00
20350;BME280;10332;50.208;18.988;2023-08-06T06:03:24;96287.41;;;19.58;100.00
20350;BME280;10332;50.208;18.988;2023-08-06T06:05:51;96292.31;;;19.61;100.00
20350;BME280;10332;50.208;18.988;2023-08-06T06:08:19;96301.25;;;19.67;100.00
20350;BME280;10332;50.208;18.988;2023-08-06T06:10:46;96307.34;;;19.74;100.00
20350;BME280;10332;50.208;18.988;2023-08-06T06:13:14;96300.00;;;19.76;100.00
20350;BME280;10332;50.208;18.988;2023-08-06T06:15:41;96281.28;;;19.77;100.00
20350;BME280;10332;50.208;18.988;2023-08-06T06:18:09;96280.66;;;19.75;100.00
20350;BME280;10332;50.208;18.988;2023-08-06T06:20:36;96269.91;;;19.64;100.00
20350;BME280;10332;50.208;18.988;2023-08-06T06:23:04;96273.53;;;19.76;100.00
20350;BME280;10332;50.208;18.988;2023-08-06T06:25:31;96268.03;;;19.77;100.00
20350;BME280;10332;50.208;18.988;2023-08-06T06:27:58;96276.38;;;19.68;100.00
20350;BME280;10332;50.208;18.988;2023-08-06T06:30:26;96288.44;;;19.70;100.00
20350;BME280;10332;50.208;18.988;2023-08-06T06:32:53;96294.75;;;19.69;100.00
20350;BME280;10332;50.208;18.988;2023-08-06T06:35:21;96303.50;;;19.70;100.00
20350;BME280;10332;50.208;18.988;2023-08-06T06:37:49;96284.75;;;19.65;100.00
20350;BME280;10332;50.208;18.988;2023-08-06T06:40:16;96272.34;;;19.59;100.00
20350;BME280;10332;50.208;18.988;2023-08-06T06:42:44;96253.19;;;19.63;100.00
20350;BME280;10332;50.208;18.988;2023-08-06T06:45:11;96240.78;;;19.64;100.00
20350;BME280;10332;50.208;18.988;2023-08-06T06:47:39;96251.56;;;19.42;100.00
20350;BME280;10332;50.208;18.988;2023-08-06T06:50:07;96252.97;;;19.32;100.00
20350;BME280;10332;50.208;18.988;2023-08-06T06:52:35;96251.56;;;19.29;100.00
20350;BME280;10332;50.208;18.988;2023-08-06T06:55:02;96236.94;;;19.07;100.00
20350;BME280;10332;50.208;18.988;2023-08-06T06:57:30;96227.13;;;18.74;100.00
20350;BME280;10332;50.208;18.988;2023-08-06T06:59:57;96220.22;;;18.66;100.00
20350;BME280;10332;50.208;18.988;2023-08-06T07:02:25;96223.09;;;18.71;100.00
20350;BME280;10332;50.208;18.988;2023-08-06T07:04:52;96202.72;;;18.65;100.00
20350;BME280;10332;50.208;18.988;2023-08-06T07:07:20;96204.88;;;18.35;100.00
20350;BME280;10332;50.208;18.988;2023-08-06T07:09:47;96203.50;;;18.59;100.00
20350;BME280;10332;50.208;18.988;2023-08-06T07:12:15;96205.38;;;18.65;100.00
20350;BME280;10332;50.208;18.988;2023-08-06T07:14:42;96217.78;;;18.65;100.00
20350;BME280;10332;50.208;18.988;2023-08-06T07:17:10;96236.88;;;18.60;100.00
20350;BME280;10332;50.208;18.988;2023-08-06T07:19:37;96261.25;;;18.62;100.00
20350;BME280;10332;50.208;18.988;2023-08-06T07:22:05;96270.66;;;18.65;100.00
20350;BME280;10332;50.208;18.988;2023-08-06T07:24:32;96280.91;;;18.33;100.00
20350;BME280;10332;50.208;18.988;2023-08-06T07:27:00;96294.94;;;18.40;100.00
20350;BME280;10332;50.208;18.988;2023-08-06T07:29:28;96302.47;;;18.43;100.00
20350;BME280;10332;50.208;18.988;2023-08-06T07:31:55;96296.94;;;18.32;100.00
20350;BME280;10332;50.208;18.988;2023-08-06T07:34:23;96272.69;;;18.15;100.00
20350;BME280;10332;50.208;18.988;2023-08-06T07:36:50;96240.00;;;18.16;100.00
20350;BME280;10332;50.208;18.988;2023-08-06T07:39:18;96247.75;;;17.83;100.00
20350;BME280;10332;50.208;18.988;2023-08-06T07:41:45;96242.72;;;17.95;100.00
20350;BME280;10332;50.208;18.988;2023-08-06T07:44:13;96266.34;;;18.03;100.00
20350;BME280;10332;50.208;18.988;2023-08-06T07:46:40;96262.72;;;18.10;100.00
20350;BME280;10332;50.208;18.988;2023-08-06T07:49:09;96272.22;;;18.05;100.00
20350;BME280;10332;50.208;18.988;2023-08-06T07:51:38;96280.19;;;18.11;100.00
20350;BME280;10332;50.208;18.988;2023-08-06T07:54:06;96296.00;;;18.05;100.00
20350;BME280;10332;50.208;18.988;2023-08-06T07:56:34;96299.59;;;17.91;100.00
20350;BME280;10332;50.208;18.988;2023-08-06T07:59:03;96290.50;;;18.00;100.00
20350;BME280;10332;50.208;18.988;2023-08-06T08:01:30;96283.44;;;18.13;100.00
20350;BME280;10332;50.208;18.988;2023-08-06T08:03:57;96260.50;;;18.21;100.00
20350;BME280;10332;50.208;18.988;2023-08-06T08:06:25;96246.91;;;18.24;100.00
20350;BME280;10332;50.208;18.988;2023-08-06T08:08:52;96238.41;;;18.28;100.00
20350;BME280;10332;50.208;18.988;2023-08-06T08:11:20;96268.31;;;18.35;100.00
20350;BME280;10332;50.208;18.988;2023-08-06T08:13:47;96284.16;;;18.42;100.00
20350;BME280;10332;50.208;18.988;2023-08-06T08:16:15;96268.56;;;18.54;100.00
20350;BME280;10332;50.208;18.988;2023-08-06T08:18:42;96282.88;;;18.79;100.00
20350;BME280;10332;50.208;18.988;2023-08-06T08:21:10;96277.59;;;18.79;100.00
20350;BME280;10332;50.208;18.988;2023-08-06T08:23:37;96269.44;;;18.74;100.00
20350;BME280;10332;50.208;18.988;2023-08-06T08:26:06;96276.50;;;18.60;100.00
20350;BME280;10332;50.208;18.988;2023-08-06T08:28:33;96265.34;;;18.65;100.00
20350;BME280;10332;50.208;18.988;2023-08-06T08:31:02;96260.09;;;18.85;100.00
20350;BME280;10332;50.208;18.988;2023-08-06T08:33:30;96255.84;;;18.90;100.00
20350;BME280;10332;50.208;18.988;2023-08-06T08:35:58;96250.75;;;19.02;100.00
20350;BME280;10332;50.208;18.988;2023-08-06T08:38:25;96265.00;;;18.94;100.00
20350;BME280;10332;50.208;18.988;2023-08-06T08:40:54;96274.34;;;18.84;100.00
20350;BME280;10332;50.208;18.988;2023-08-06T08:43:23;96272.72;;;18.83;100.00
20350;BME280;10332;50.208;18.988;2023-08-06T08:45:52;96279.41;;;18.85;100.00
20350;BME280;10332;50.208;18.988;2023-08-06T08:48:23;96272.94;;;18.88;100.00
20350;BME280;10332;50.208;18.988;2023-08-06T08:50:51;96276.00;;;18.98;100.00
20350;BME280;10332;50.208;18.988;2023-08-06T08:53:21;96285.56;;;19.06;100.00
20350;BME280;10332;50.208;18.988;2023-08-06T08:55:49;96284.34;;;19.08;100.00
20350;BME280;10332;50.208;18.988;2023-08-06T08:58:17;96282.31;;;19.17;100.00
20350;BME280;10332;50.208;18.988;2023-08-06T09:00:48;96268.25;;;19.23;100.00
20350;BME280;10332;50.208;18.988;2023-08-06T09:03:17;96265.59;;;19.23;100.00
20350;BME280;10332;50.208;18.988;2023-08-06T09:05:49;96259.09;;;19.19;100.00
20350;BME280;10332;50.208;18.988;2023-08-06T09:08:24;96263.38;;;19.07;100.00
20350;BME280;10332;50.208;18.988;2023-08-06T09:10:55;96268.06;;;19.11;100.00
20350;BME280;10332;50.208;18.988;2023-08-06T09:13:23;96263.38;;;19.07;100.00
20350;BME280;10332;50.208;18.988;2023-08-06T09:15:51;96265.41;;;19.05;100.00
20350;BME280;10332;50.208;18.988;2023-08-06T09:18:26;96266.03;;;19.00;100.00
20350;BME280;10332;50.208;18.988;2023-08-06T09:20:58;96250.75;;;18.89;100.00
20350;BME280;10332;50.208;18.988;2023-08-06T09:23:31;96257.06;;;18.94;100.00
20350;BME280;10332;50.208;18.988;2023-08-06T09:25:59;96246.06;;;19.04;100.00
20350;BME280;10332;50.208;18.988;2023-08-06T09:28:39;96226.56;;;19.05;100.00
20350;BME280;10332;50.208;18.988;2023-08-06T09:31:09;96244.03;;;19.13;100.00
20350;BME280;10332;50.208;18.988;2023-08-06T09:33:38;96244.69;;;19.15;100.00
20350;BME280;10332;50.208;18.988;2023-08-06T09:36:10;96254.22;;;19.16;100.00
20350;BME280;10332;50.208;18.988;2023-08-06T09:38:39;96255.25;;;19.15;100.00
20350;BME280;10332;50.208;18.988;2023-08-06T09:41:08;96246.91;;;19.24;99.02
20350;BME280;10332;50.208;18.988;2023-08-06T09:43:42;96259.31;;;19.24;98.96
20350;BME280;10332;50.208;18.988;2023-08-06T09:46:14;96266.00;;;19.13;99.15
20350;BME280;10332;50.208;18.988;2023-08-06T09:48:47;96269.69;;;19.19;98.87
20350;BME280;10332;50.208;18.988;2023-08-06T09:51:16;96277.63;;;19.19;98.67
20350;BME280;10332;50.208;18.988;2023-08-06T09:53:45;96270.69;;;19.11;99.06
20350;BME280;10332;50.208;18.988;2023-08-06T09:56:15;96269.88;;;19.04;99.21
20350;BME280;10332;50.208;18.988;2023-08-06T09:58:45;96274.78;;;19.00;99.60
20350;BME280;10332;50.208;18.988;2023-08-06T10:01:16;96275.56;;;18.81;99.73
20350;BME280;10332;50.208;18.988;2023-08-06T10:03:47;96271.69;;;18.77;99.86
20350;BME280;10332;50.208;18.988;2023-08-06T10:06:15;96271.69;;;18.77;99.73
20350;BME280;10332;50.208;18.988;2023-08-06T10:08:42;96271.38;;;18.46;100.00
20350;BME280;10332;50.208;18.988;2023-08-06T10:11:10;96280.81;;;18.68;99.74
20350;BME280;10332;50.208;18.988;2023-08-06T10:13:38;96286.91;;;18.68;99.77
20350;BME280;10332;50.208;18.988;2023-08-06T10:16:07;96283.66;;;18.66;100.00
20350;BME280;10332;50.208;18.988;2023-08-06T10:18:38;96288.56;;;18.69;100.00
20350;BME280;10332;50.208;18.988;2023-08-06T10:21:08;96287.53;;;18.70;100.00
20350;BME280;10332;50.208;18.988;2023-08-06T10:23:40;96291.38;;;18.68;100.00
20350;BME280;10332;50.208;18.988;2023-08-06T10:26:08;96298.69;;;18.66;100.00
20350;BME280;10332;50.208;18.988;2023-08-06T10:28:39;96299.50;;;18.66;100.00
20350;BME280;10332;50.208;18.988;2023-08-06T10:31:07;96306.41;;;18.61;100.00
20350;BME280;10332;50.208;18.988;2023-08-06T10:33:46;96308.38;;;18.46;100.00
20350;BME280;10332;50.208;18.988;2023-08-06T10:36:15;96315.13;;;18.55;100.00
20350;BME280;10332;50.208;18.988;2023-08-06T10:38:48;96313.50;;;18.54;100.00
20350;BME280;10332;50.208;18.988;2023-08-06T10:41:32;96313.94;;;18.64;100.00
20350;BME280;10332;50.208;18.988;2023-08-06T10:44:10;96313.81;;;18.37;100.00
20350;BME280;10332;50.208;18.988;2023-08-06T10:46:38;96307.50;;;18.25;100.00
20350;BME280;10332;50.208;18.988;2023-08-06T10:49:06;96301.84;;;18.41;100.00
20350;BME280;10332;50.208;18.988;2023-08-06T10:51:36;96320.34;;;18.41;100.00
20350;BME280;10332;50.208;18.988;2023-08-06T10:54:04;96312.44;;;18.48;100.00
20350;BME280;10332;50.208;18.988;2023-08-06T10:56:40;96312.84;;;18.45;100.00
20350;BME280;10332;50.208;18.988;2023-08-06T10:59:09;96308.94;;;18.41;100.00
20350;BME280;10332;50.208;18.988;2023-08-06T11:01:38;96317.41;;;18.23;100.00
20350;BME280;10332;50.208;18.988;2023-08-06T11:04:06;96328.78;;;18.24;100.00
20350;BME280;10332;50.208;18.988;2023-08-06T11:06:34;96330.28;;;18.39;100.00
20350;BME280;10332;50.208;18.988;2023-08-06T11:09:02;96341.69;;;18.40;100.00
20350;BME280;10332;50.208;18.988;2023-08-06T11:11:29;96342.25;;;18.29;100.00
20350;BME280;10332;50.208;18.988;2023-08-06T11:13:57;96338.41;;;18.38;100.00
20350;BME280;10332;50.208;18.988;2023-08-06T11:16:24;96338.00;;;18.34;100.00
20350;BME280;10332;50.208;18.988;2023-08-06T11:18:52;96339.22;;;18.38;100.00
20350;BME280;10332;50.208;18.988;2023-08-06T11:21:22;96331.84;;;18.21;100.00
20350;BME280;10332;50.208;18.988;2023-08-06T11:23:51;96353.00;;;18.27;100.00
20350;BME280;10332;50.208;18.988;2023-08-06T11:26:20;96357.78;;;18.10;100.00
20350;BME280;10332;50.208;18.988;2023-08-06T11:28:49;96341.78;;;18.19;100.00
20350;BME280;10332;50.208;18.988;2023-08-06T11:31:23;96331.47;;;18.30;100.00
20350;BME280;10332;50.208;18.988;2023-08-06T11:33:54;96332.00;;;18.54;100.00
20350;BME280;10332;50.208;18.988;2023-08-06T11:36:40;96339.50;;;18.57;100.00
20350;BME280;10332;50.208;18.988;2023-08-06T11:39:08;96342.34;;;18.55;100.00
20350;BME280;10332;50.208;18.988;2023-08-06T11:41:38;96348.22;;;18.51;100.00
20350;BME280;10332;50.208;18.988;2023-08-06T11:44:10;96351.91;;;18.15;100.00
20350;BME280;10332;50.208;18.988;2023-08-06T11:46:55;96344.72;;;18.37;100.00
20350;BME280;10332;50.208;18.988;2023-08-06T11:49:46;96349.44;;;18.48;100.00
20350;BME280;10332;50.208;18.988;2023-08-06T11:55:08;96353.16;;;18.19;100.00
20350;BME280;10332;50.208;18.988;2023-08-06T11:57:43;96347.69;;;18.62;100.00
20350;BME280;10332;50.208;18.988;2023-08-06T12:00:13;96344.16;;;18.48;100.00
20350;BME280;10332;50.208;18.988;2023-08-06T12:02:44;96354.25;;;18.73;100.00
20350;BME280;10332;50.208;18.988;2023-08-06T12:05:17;96356.50;;;18.82;100.00
20350;BME280;10332;50.208;18.988;2023-08-06T12:07:52;96358.75;;;18.85;100.00
20350;BME280;10332;50.208;18.988;2023-08-06T12:10:21;96377.00;;;18.67;100.00
20350;BME280;10332;50.208;18.988;2023-08-06T12:12:50;96373.09;;;18.63;100.00
20350;BME280;10332;50.208;18.988;2023-08-06T12:15:19;96379.63;;;18.67;100.00
20350;BME280;10332;50.208;18.988;2023-08-06T12:17:47;96384.09;;;18.66;100.00
20350;BME280;10332;50.208;18.988;2023-08-06T12:20:15;96379.28;;;18.83;99.62
20350;BME280;10332;50.208;18.988;2023-08-06T12:22:43;96385.78;;;18.74;100.00
20350;BME280;10332;50.208;18.988;2023-08-06T12:25:11;96381.34;;;18.94;98.95
20350;BME280;10332;50.208;18.988;2023-08-06T12:27:44;96385.44;;;19.04;99.06
20350;BME280;10332;50.208;18.988;2023-08-06T12:30:13;96391.78;;;19.09;98.60
20350;BME280;10332;50.208;18.988;2023-08-06T12:32:41;96399.22;;;18.79;99.16
20350;BME280;10332;50.208;18.988;2023-08-06T12:35:08;96402.91;;;18.91;98.76
20350;BME280;10332;50.208;18.988;2023-08-06T12:37:36;96402.84;;;18.71;99.74
20350;BME280;10332;50.208;18.988;2023-08-06T12:40:06;96393.94;;;18.79;99.90
20350;BME280;10332;50.208;18.988;2023-08-06T12:42:54;96398.47;;;18.98;99.26
20350;BME280;10332;50.208;18.988;2023-08-06T12:45:22;96404.34;;;18.87;98.29
20350;BME280;10332;50.208;18.988;2023-08-06T12:47:49;96395.97;;;18.84;98.56
20350;BME280;10332;50.208;18.988;2023-08-06T12:50:17;96406.88;;;18.67;99.96
20350;BME280;10332;50.208;18.988;2023-08-06T12:52:45;96392.44;;;18.29;100.00
20350;BME280;10332;50.208;18.988;2023-08-06T12:55:13;96382.41;;;18.59;100.00
20350;BME280;10332;50.208;18.988;2023-08-06T12:57:40;96381.59;;;18.58;100.00